createdAt,value
2019-04-01T00:01:21.073Z,40.37
2019-04-01T00:03:47.541Z,37.50
2019-04-01T00:06:14.205Z,38.83
2019-04-01T00:08:40.543Z,38.40
2019-04-01T00:11:06.807Z,35.43
2019-04-01T00:13:33.210Z,35.00
2019-04-01T00:15:59.700Z,44.13
2019-04-01T00:18:26.014Z,35.27
2019-04-01T00:20:52.407Z,36.00
2019-04-01T00:23:18.669Z,35.47
2019-04-01T00:25:45.013Z,33.70
2019-04-01T00:28:11.464Z,36.63
2019-04-01T00:30:37.933Z,39.43
2019-04-01T00:33:04.295Z,39.63
2019-04-01T00:35:30.586Z,40.47
2019-04-01T00:37:56.881Z,34.53
2019-04-01T00:40:24.223Z,39.27
2019-04-01T00:42:52.790Z,41.17
2019-04-01T00:45:20.954Z,37.90
2019-04-01T00:47:47.301Z,38.93
2019-04-01T00:50:13.700Z,36.93
2019-04-01T00:52:40.330Z,33.90
2019-04-01T00:55:06.706Z,38.50
2019-04-01T00:57:34.082Z,35.43
2019-04-01T01:00:00.692Z,38.77
2019-04-01T01:02:27.327Z,37.53
2019-04-01T01:04:53.736Z,37.77
2019-04-01T01:07:20.158Z,39.83
2019-04-01T01:09:46.528Z,38.40
2019-04-01T01:12:12.832Z,37.37
2019-04-01T01:14:39.476Z,40.90
2019-04-01T01:17:05.846Z,36.00
2019-04-01T01:19:32.159Z,40.10
2019-04-01T01:21:58.783Z,39.60
2019-04-01T01:24:25.166Z,41.37
2019-04-01T01:26:52.832Z,45.37
2019-04-01T01:29:19.480Z,44.50
2019-04-01T01:31:46.760Z,38.30
2019-04-01T01:34:13.150Z,41.73
2019-04-01T01:36:39.794Z,41.20
2019-04-01T01:39:07.147Z,35.87
2019-04-01T01:41:33.527Z,37.53
2019-04-01T01:43:59.856Z,35.73
2019-04-01T01:46:26.302Z,38.87
2019-04-01T01:48:52.551Z,35.83
2019-04-01T01:51:19.059Z,45.00
2019-04-01T01:53:45.701Z,38.77
2019-04-01T01:56:12.022Z,37.40
2019-04-01T01:58:38.370Z,40.77
2019-04-01T02:01:05.706Z,36.17
2019-04-01T02:03:32.058Z,39.30
2019-04-01T02:05:58.780Z,42.40
2019-04-01T02:08:25.127Z,43.83
2019-04-01T02:10:52.742Z,43.60
2019-04-01T02:13:20.149Z,37.63
2019-04-01T02:15:46.671Z,42.13
2019-04-01T02:18:14.049Z,40.90
2019-04-01T02:20:40.473Z,43.93
2019-04-01T02:23:07.082Z,40.47
2019-04-01T02:25:33.402Z,45.70
2019-04-01T02:27:59.668Z,48.13
2019-04-01T02:30:26.040Z,41.40
2019-04-01T02:32:52.633Z,43.50
2019-04-01T02:35:19.985Z,40.13
2019-04-01T02:37:46.325Z,44.83
2019-04-01T02:40:12.661Z,44.70
2019-04-01T02:42:39.202Z,44.10
2019-04-01T02:45:05.879Z,49.90
2019-04-01T02:47:32.395Z,43.77
2019-04-01T02:49:59.010Z,44.43
2019-04-01T02:52:25.267Z,45.30
2019-04-01T02:54:51.694Z,46.20
2019-04-01T02:57:17.999Z,39.37
2019-04-01T02:59:44.603Z,44.97
2019-04-01T03:02:10.983Z,39.80
2019-04-01T03:04:37.607Z,48.33
2019-04-01T03:07:03.854Z,51.03
2019-04-01T03:09:30.090Z,49.63
2019-04-01T03:11:56.608Z,47.67
2019-04-01T03:14:22.952Z,43.77
2019-04-01T03:16:49.224Z,51.90
2019-04-01T03:19:15.495Z,45.83
2019-04-01T03:21:41.723Z,48.77
2019-04-01T03:24:07.977Z,52.23
2019-04-01T03:26:34.230Z,48.27
2019-04-01T03:29:00.594Z,47.73
2019-04-01T03:31:27.257Z,51.73
2019-04-01T03:33:53.570Z,53.90
2019-04-01T03:36:20.018Z,47.30
2019-04-01T03:38:46.286Z,51.57
2019-04-01T03:41:12.555Z,46.60
2019-04-01T03:43:38.830Z,48.73
2019-04-01T03:46:05.213Z,55.10
2019-04-01T03:48:31.665Z,55.13
2019-04-01T03:50:58.956Z,53.87
2019-04-01T03:53:25.506Z,54.37
2019-04-01T03:55:51.986Z,50.43
2019-04-01T03:58:18.316Z,55.13
2019-04-01T04:00:44.930Z,47.57
2019-04-01T04:03:11.479Z,56.80
2019-04-01T04:05:37.806Z,53.10
2019-04-01T04:08:04.087Z,45.27
2019-04-01T04:10:30.536Z,53.17
2019-04-01T04:12:57.138Z,50.87
2019-04-01T04:15:23.751Z,53.43
2019-04-01T04:17:50.093Z,53.13
2019-04-01T04:20:16.402Z,54.23
2019-04-01T04:22:42.638Z,45.07
2019-04-01T04:25:09.441Z,44.80
2019-04-01T04:27:36.048Z,55.87
2019-04-01T04:30:04.664Z,55.33
2019-04-01T04:32:30.934Z,51.97
2019-04-01T04:34:57.696Z,47.97
2019-04-01T04:37:24.187Z,51.77
2019-04-01T04:39:50.814Z,48.00
2019-04-01T04:42:17.034Z,59.43
2019-04-01T04:44:43.315Z,50.90
2019-04-01T04:47:09.570Z,48.53
2019-04-01T04:49:37.361Z,50.37
2019-04-01T04:52:04.738Z,59.23
2019-04-01T04:54:31.186Z,48.70
2019-04-01T04:56:57.714Z,50.83
2019-04-01T04:59:23.959Z,55.40
2019-04-01T05:01:50.343Z,58.27
2019-04-01T05:04:16.861Z,46.47
2019-04-01T05:06:43.224Z,51.83
2019-04-01T05:09:09.577Z,54.33
2019-04-01T05:11:36.106Z,54.23
2019-04-01T05:14:02.659Z,55.77
2019-04-01T05:16:28.915Z,50.50
2019-04-01T05:18:55.518Z,49.37
2019-04-01T05:21:22.643Z,54.47
2019-04-01T05:23:49.850Z,53.13
2019-04-01T05:26:16.614Z,62.23
2019-04-01T05:28:43.845Z,54.23
2019-04-01T05:31:14.388Z,61.13
2019-04-01T05:33:54.783Z,54.70
2019-04-01T05:36:12.621Z,49.10
2019-04-01T05:38:39.182Z,65.83
2019-04-01T05:41:06.062Z,58.60
2019-04-01T05:43:32.615Z,65.20
2019-04-01T05:45:58.842Z,50.00
2019-04-01T05:48:27.674Z,54.13
2019-04-01T05:50:53.921Z,54.07
2019-04-01T05:53:20.265Z,59.67
2019-04-01T05:55:47.556Z,50.50
2019-04-01T05:58:14.196Z,48.30
2019-04-01T06:00:42.616Z,55.13
2019-04-01T06:03:08.956Z,46.00
2019-04-01T06:05:35.505Z,48.60
2019-04-01T06:08:02.159Z,52.03
2019-04-01T06:10:28.417Z,53.70
2019-04-01T06:12:54.954Z,52.63
2019-04-01T06:15:22.510Z,47.00
2019-04-01T06:17:48.833Z,50.30
2019-04-01T06:20:15.484Z,50.73
2019-04-01T06:22:41.845Z,47.93
2019-04-01T06:25:09.302Z,44.87
2019-04-01T06:27:35.741Z,52.10
2019-04-01T06:30:05.727Z,46.70
2019-04-01T06:32:32.187Z,42.67
2019-04-01T06:34:58.529Z,47.83
2019-04-01T06:37:24.798Z,49.23
2019-04-01T06:39:51.065Z,50.43
2019-04-01T06:42:18.538Z,41.93
2019-04-01T06:44:45.405Z,47.00
2019-04-01T06:47:11.771Z,40.33
2019-04-01T06:49:39.469Z,43.00
2019-04-01T06:52:06.196Z,40.20
2019-04-01T06:54:32.521Z,40.37
2019-04-01T06:56:59.467Z,38.87
2019-04-01T06:59:26.215Z,36.60
2019-04-01T07:01:53.798Z,38.40
2019-04-01T07:04:20.158Z,33.97
2019-04-01T07:06:46.403Z,39.03
2019-04-01T07:09:12.885Z,34.30
2019-04-01T07:11:39.434Z,35.37
2019-04-01T07:14:06.154Z,40.40
2019-04-01T07:16:32.557Z,35.90
2019-04-01T07:18:59.180Z,33.73
2019-04-01T07:21:25.431Z,38.50
2019-04-01T07:23:51.973Z,35.30
2019-04-01T07:26:18.371Z,31.50
2019-04-01T07:28:44.799Z,32.43
2019-04-01T07:31:12.285Z,36.00
2019-04-01T07:33:38.567Z,30.47
2019-04-01T07:36:04.900Z,29.10
2019-04-01T07:38:31.622Z,30.63
2019-04-01T07:40:59.314Z,32.63
2019-04-01T07:43:26.014Z,34.30
2019-04-01T07:45:52.272Z,32.53
2019-04-01T07:48:18.638Z,32.77
2019-04-01T07:50:45.169Z,32.17
2019-04-01T07:53:11.809Z,27.23
2019-04-01T07:55:38.557Z,26.17
2019-04-01T07:58:04.894Z,33.93
2019-04-01T08:00:31.559Z,32.13
2019-04-01T08:02:58.119Z,29.90
2019-04-01T08:05:26.095Z,29.90
2019-04-01T08:07:53.119Z,29.00
2019-04-01T08:10:20.074Z,29.67
2019-04-01T08:12:46.457Z,30.33
2019-04-01T08:15:12.982Z,30.23
2019-04-01T08:17:39.252Z,30.47
2019-04-01T08:20:06.066Z,29.73
2019-04-01T08:22:33.526Z,26.83
2019-04-01T08:25:00.544Z,30.57
2019-04-01T08:27:27.033Z,26.93
2019-04-01T08:29:53.469Z,27.83
2019-04-01T08:32:21.165Z,32.00
2019-04-01T08:34:49.514Z,31.87
2019-04-01T08:37:15.843Z,28.67
2019-04-01T08:39:43.188Z,31.07
2019-04-01T08:42:09.444Z,31.10
2019-04-01T08:44:35.834Z,28.30
2019-04-01T08:47:02.127Z,28.90
2019-04-01T08:49:28.507Z,28.37
2019-04-01T08:51:55.167Z,28.57
2019-04-01T08:54:21.757Z,29.93
2019-04-01T08:56:48.389Z,30.17
2019-04-01T08:59:14.830Z,28.40
2019-04-01T09:01:41.166Z,29.70
2019-04-01T09:04:07.686Z,27.17
2019-04-01T09:06:34.295Z,28.73
2019-04-01T09:09:01.529Z,30.50
2019-04-01T09:11:30.238Z,31.27
2019-04-01T09:13:56.672Z,41.90
2019-04-01T09:16:23.049Z,30.73
2019-04-01T09:18:49.657Z,25.37
2019-04-01T09:21:16.244Z,30.33
2019-04-01T09:23:42.894Z,27.40
2019-04-01T09:26:09.247Z,28.13
2019-04-01T09:28:35.777Z,27.67
2019-04-01T09:31:02.210Z,28.57
2019-04-01T09:33:28.863Z,30.57
2019-04-01T09:35:55.096Z,28.57
2019-04-01T09:38:22.465Z,29.97
2019-04-01T09:40:48.796Z,27.33
2019-04-01T09:43:15.050Z,30.70
2019-04-01T09:45:41.625Z,25.67
2019-04-01T09:48:07.916Z,28.73
2019-04-01T09:50:34.441Z,27.27
2019-04-01T09:53:00.764Z,32.20
2019-04-01T09:55:27.108Z,25.60
2019-04-01T09:57:53.683Z,27.70
2019-04-01T10:00:20.462Z,25.13
2019-04-01T10:02:46.698Z,22.40
2019-04-01T10:05:14.950Z,26.27
2019-04-01T10:07:41.361Z,27.77
2019-04-01T10:10:08.366Z,28.13
2019-04-01T10:12:35.032Z,28.60
2019-04-01T10:15:01.565Z,23.23
2019-04-01T10:17:27.926Z,23.77
2019-04-01T10:19:54.583Z,27.80
2019-04-01T10:22:21.025Z,22.83
2019-04-01T10:24:47.526Z,25.70
2019-04-01T10:27:13.919Z,25.97
2019-04-01T10:29:40.549Z,27.60
2019-04-01T10:32:06.996Z,27.30
2019-04-01T10:34:34.261Z,24.77
2019-04-01T10:37:00.758Z,24.93
2019-04-01T10:39:28.251Z,28.30
2019-04-01T10:41:54.660Z,22.80
2019-04-01T10:44:21.026Z,26.83
2019-04-01T10:46:47.338Z,22.43
2019-04-01T10:49:13.702Z,24.00
2019-04-01T10:51:39.972Z,22.50
2019-04-01T10:54:06.275Z,25.50
2019-04-01T10:56:35.827Z,25.83
2019-04-01T10:59:02.406Z,24.90
2019-04-01T11:01:28.827Z,24.10
2019-04-01T11:03:56.188Z,23.37
2019-04-01T11:06:22.764Z,21.90
2019-04-01T11:08:49.095Z,24.47
2019-04-01T11:11:15.333Z,26.23
2019-04-01T11:13:41.918Z,26.63
2019-04-01T11:16:08.514Z,22.83
2019-04-01T11:18:34.741Z,23.07
2019-04-01T11:21:01.087Z,22.53
2019-04-01T11:23:27.601Z,32.70
2019-04-01T11:25:53.854Z,21.77
2019-04-01T11:28:20.201Z,22.50
2019-04-01T11:30:46.538Z,25.60
2019-04-01T11:33:13.180Z,22.17
2019-04-01T11:35:40.508Z,20.03
2019-04-01T11:38:06.849Z,21.87
2019-04-01T11:40:33.112Z,17.83
2019-04-01T11:42:59.724Z,23.03
2019-04-01T11:45:26.306Z,28.20
2019-04-01T11:47:52.652Z,18.77
2019-04-01T11:50:19.003Z,27.43
2019-04-01T11:52:45.669Z,22.27
2019-04-01T11:55:12.149Z,18.57
2019-04-01T11:57:38.496Z,20.97
2019-04-01T12:00:12.543Z,21.70
2019-04-01T12:02:37.223Z,20.20
2019-04-01T12:05:04.778Z,17.67
2019-04-01T12:07:31.287Z,22.73
2019-04-01T12:09:57.662Z,17.30
2019-04-01T12:12:24.572Z,15.93
2019-04-01T12:14:51.174Z,20.83
2019-04-01T12:17:17.456Z,19.97
2019-04-01T12:19:43.795Z,19.17
2019-04-01T12:22:10.483Z,19.00
2019-04-01T12:24:37.574Z,20.17
2019-04-01T12:27:03.832Z,20.00
2019-04-01T12:29:30.169Z,20.00
2019-04-01T12:31:59.613Z,21.77
2019-04-01T12:34:25.788Z,20.17
2019-04-01T12:36:52.243Z,18.13
2019-04-01T12:39:18.470Z,18.87
2019-04-01T12:41:44.977Z,18.87
2019-04-01T12:44:11.572Z,21.40
2019-04-01T12:46:37.888Z,23.23
2019-04-01T12:49:04.553Z,22.83
2019-04-01T12:51:30.783Z,20.73
2019-04-01T12:53:57.043Z,19.53
2019-04-01T12:56:23.278Z,18.47
2019-04-01T12:58:49.528Z,19.70
2019-04-01T13:01:15.939Z,17.50
2019-04-01T13:03:42.338Z,17.97
2019-04-01T13:06:08.866Z,16.80
2019-04-01T13:08:35.293Z,15.37
2019-04-01T13:11:01.562Z,16.40
2019-04-01T13:13:27.795Z,14.67
2019-04-01T13:15:54.306Z,15.87
2019-04-01T13:18:20.579Z,16.63
2019-04-01T13:20:51.552Z,17.50
2019-04-01T13:23:16.497Z,14.77
2019-04-01T13:25:42.748Z,14.40
2019-04-01T13:28:09.397Z,14.00
2019-04-01T13:30:35.910Z,15.33
2019-04-01T13:33:02.301Z,18.10
2019-04-01T13:35:28.924Z,19.40
2019-04-01T13:37:55.257Z,16.90
2019-04-01T13:40:21.896Z,16.87
2019-04-01T13:42:48.139Z,18.17
2019-04-01T13:45:14.521Z,18.70
2019-04-01T13:47:41.424Z,14.57
2019-04-01T13:50:08.172Z,15.90
2019-04-01T13:52:34.549Z,17.43
2019-04-01T13:55:00.815Z,18.57
2019-04-01T13:57:27.419Z,16.63
2019-04-01T13:59:53.919Z,19.13
2019-04-01T14:02:20.509Z,24.37
2019-04-01T14:04:47.035Z,17.43
2019-04-01T14:07:13.368Z,19.53
2019-04-01T14:09:39.714Z,19.00
2019-04-01T14:12:06.055Z,21.17
2019-04-01T14:14:32.418Z,18.93
2019-04-01T14:16:58.697Z,20.00
2019-04-01T14:19:25.059Z,17.73
2019-04-01T14:21:52.131Z,16.13
2019-04-01T14:24:19.026Z,14.73
2019-04-01T14:26:45.245Z,17.13
2019-04-01T14:29:11.678Z,14.50
2019-04-01T14:31:38.045Z,17.60
2019-04-01T14:34:06.267Z,16.60
2019-04-01T14:36:32.552Z,17.43
2019-04-01T14:38:59.077Z,15.17
2019-04-01T14:41:25.426Z,16.27
2019-04-01T14:43:55.044Z,14.53
2019-04-01T14:46:19.913Z,14.27
2019-04-01T14:48:46.169Z,16.83
2019-04-01T14:51:12.411Z,17.63
2019-04-01T14:53:38.758Z,18.10
2019-04-01T14:56:05.122Z,19.87
2019-04-01T14:58:31.380Z,15.13
2019-04-01T15:00:58.188Z,15.37
2019-04-01T15:03:24.554Z,15.27
2019-04-01T15:05:51.081Z,16.90
2019-04-01T15:08:19.381Z,17.27
2019-04-01T15:10:45.800Z,24.47
2019-04-01T15:13:12.050Z,17.30
2019-04-01T15:15:38.581Z,15.97
2019-04-01T15:18:05.034Z,16.40
2019-04-01T15:20:31.399Z,15.10
2019-04-01T15:22:57.833Z,14.33
2019-04-01T15:25:24.275Z,15.37
2019-04-01T15:27:50.847Z,17.20
2019-04-01T15:30:17.203Z,15.97
2019-04-01T15:32:43.560Z,15.17
2019-04-01T15:35:10.311Z,15.87
2019-04-01T15:37:36.676Z,15.47
2019-04-01T15:40:07.518Z,15.03
2019-04-01T15:42:34.034Z,14.57
2019-04-01T15:45:00.460Z,14.30
2019-04-01T15:47:27.374Z,22.10
2019-04-01T15:49:54.160Z,16.40
2019-04-01T15:52:20.959Z,13.43
2019-04-01T15:54:47.421Z,14.67
2019-04-01T15:57:15.347Z,17.47
2019-04-01T15:59:44.271Z,11.33
2019-04-01T16:02:12.232Z,15.77
2019-04-01T16:04:40.191Z,12.53
2019-04-01T16:07:07.100Z,15.37
2019-04-01T16:09:35.259Z,13.83
2019-04-01T16:12:01.602Z,14.33
2019-04-01T16:14:30.850Z,14.27
2019-04-01T16:16:57.176Z,13.10
2019-04-01T16:19:34.604Z,15.43
2019-04-01T16:22:02.765Z,13.97
2019-04-01T16:24:30.629Z,17.07
2019-04-01T16:26:57.048Z,15.70
2019-04-01T16:29:23.537Z,16.20
2019-04-01T16:31:50.420Z,15.07
2019-04-01T16:34:22.461Z,16.07
2019-04-01T16:36:57.842Z,18.70
2019-04-01T16:39:24.457Z,15.17
2019-04-01T16:41:50.989Z,14.70
2019-04-01T16:44:18.228Z,13.77
2019-04-01T16:46:46.482Z,16.93
2019-04-01T16:49:12.861Z,14.27
2019-04-01T16:51:41.481Z,14.23
2019-04-01T16:54:07.860Z,12.73
2019-04-01T16:56:34.208Z,15.93
2019-04-01T16:59:00.524Z,13.27
2019-04-01T17:01:27.013Z,16.10
2019-04-01T17:03:53.657Z,14.63
2019-04-01T17:06:20.199Z,16.17
2019-04-01T17:08:47.043Z,15.33
2019-04-01T17:11:13.490Z,14.23
2019-04-01T17:13:39.761Z,17.13
2019-04-01T17:16:07.292Z,16.73
2019-04-01T17:18:33.978Z,17.50
2019-04-01T17:21:00.381Z,19.63
2019-04-01T17:23:32.832Z,22.70
2019-04-01T17:25:59.339Z,20.87
2019-04-01T17:28:25.950Z,18.57
2019-04-01T17:30:52.324Z,21.43
2019-04-01T17:33:18.994Z,19.23
2019-04-01T17:35:45.415Z,18.80
2019-04-01T17:38:13.848Z,20.00
2019-04-01T17:40:42.262Z,21.73
2019-04-01T17:43:09.597Z,19.87
2019-04-01T17:45:37.225Z,15.27
2019-04-01T17:48:05.100Z,17.50
2019-04-01T17:50:32.743Z,18.97
2019-04-01T17:52:59.097Z,17.97
2019-04-01T17:55:25.727Z,26.23
2019-04-01T17:57:53.198Z,21.97
2019-04-01T18:00:22.126Z,22.53
2019-04-01T18:02:51.502Z,24.13
2019-04-01T18:05:19.385Z,22.40
2019-04-01T18:07:45.681Z,17.97
2019-04-01T18:10:12.830Z,16.23
2019-04-01T18:12:40.766Z,20.13
2019-04-01T18:15:07.485Z,20.90
2019-04-01T18:17:33.868Z,25.10
2019-04-01T18:20:00.209Z,20.53
2019-04-01T18:22:26.783Z,19.80
2019-04-01T18:24:53.311Z,18.43
2019-04-01T18:27:19.913Z,21.57
2019-04-01T18:29:46.388Z,20.80
2019-04-01T18:32:12.920Z,19.10
2019-04-01T18:34:39.303Z,17.27
2019-04-01T18:37:06.545Z,20.70
2019-04-01T18:39:47.131Z,26.83
2019-04-01T18:42:02.923Z,24.13
2019-04-01T18:44:29.579Z,22.33
2019-04-01T18:46:56.198Z,20.37
2019-04-01T18:49:23.330Z,18.90
2019-04-01T18:51:49.654Z,25.33
2019-04-01T18:54:15.917Z,21.77
2019-04-01T18:56:43.137Z,23.50
2019-04-01T18:59:09.390Z,24.37
2019-04-01T19:01:35.619Z,28.47
2019-04-01T19:04:02.254Z,25.30
2019-04-01T19:06:28.875Z,22.40
2019-04-01T19:09:08.395Z,21.30
2019-04-01T19:11:23.405Z,24.47
2019-04-01T19:13:49.776Z,21.13
2019-04-01T19:16:16.823Z,22.30
2019-04-01T19:18:43.793Z,24.80
2019-04-01T19:21:10.126Z,24.57
2019-04-01T19:23:36.373Z,24.50
2019-04-01T19:26:03.611Z,30.90
2019-04-01T19:28:40.460Z,20.60
2019-04-01T19:31:07.118Z,22.73
2019-04-01T19:33:33.411Z,32.43
2019-04-01T19:36:01.187Z,26.77
2019-04-01T19:38:27.879Z,24.87
2019-04-01T19:40:55.317Z,24.70
2019-04-01T19:43:24.269Z,30.00
2019-04-01T19:45:51.007Z,27.57
2019-04-01T19:48:17.328Z,31.97
2019-04-01T19:50:43.699Z,28.57
2019-04-01T19:53:11.103Z,27.47
2019-04-01T19:55:38.821Z,26.93
2019-04-01T19:58:05.458Z,25.33
2019-04-01T20:00:31.919Z,26.23
2019-04-01T20:02:58.166Z,27.33
2019-04-01T20:05:24.535Z,25.87
2019-04-01T20:07:51.213Z,31.07
2019-04-01T20:10:18.865Z,25.10
2019-04-01T20:12:45.328Z,27.83
2019-04-01T20:15:12.592Z,25.13
2019-04-01T20:17:39.582Z,32.53
2019-04-01T20:20:07.038Z,27.17
2019-04-01T20:22:33.425Z,27.23
2019-04-01T20:25:00.125Z,25.47
2019-04-01T20:27:26.651Z,27.10
2019-04-01T20:29:53.212Z,30.93
2019-04-01T20:32:20.107Z,26.83
2019-04-01T20:34:56.832Z,26.07
2019-04-01T20:37:15.368Z,24.67
2019-04-01T20:39:42.627Z,29.10
2019-04-01T20:42:09.559Z,28.50
2019-04-01T20:44:35.889Z,27.93
2019-04-01T20:47:02.172Z,27.50
2019-04-01T20:49:29.351Z,29.60
2019-04-01T20:51:56.665Z,29.53
2019-04-01T20:54:23.397Z,24.23
2019-04-01T20:56:49.639Z,23.97
2019-04-01T20:59:15.979Z,29.07
2019-04-01T21:01:42.219Z,27.87
2019-04-01T21:04:08.922Z,27.53
2019-04-01T21:06:35.194Z,27.90
2019-04-01T21:09:01.448Z,24.33
2019-04-01T21:11:29.598Z,24.40
2019-04-01T21:13:55.855Z,25.43
2019-04-01T21:16:22.518Z,30.30
2019-04-01T21:18:49.821Z,24.50
2019-04-01T21:21:17.193Z,23.97
2019-04-01T21:23:44.593Z,24.13
2019-04-01T21:26:11.089Z,21.70
2019-04-01T21:28:37.441Z,24.23
2019-04-01T21:31:04.064Z,24.80
2019-04-01T21:33:30.415Z,25.67
2019-04-01T21:35:57.030Z,21.13
2019-04-01T21:38:23.555Z,24.00
2019-04-01T21:40:49.833Z,21.80
2019-04-01T21:43:16.481Z,23.83
2019-04-01T21:45:43.042Z,20.10
2019-04-01T21:48:10.358Z,24.47
2019-04-01T21:50:36.886Z,25.00
2019-04-01T21:53:06.747Z,23.30
2019-04-01T21:55:33.073Z,21.43
2019-04-01T21:57:59.314Z,21.80
2019-04-01T22:00:45.409Z,22.17
2019-04-01T22:03:13.163Z,23.70
2019-04-01T22:05:40.115Z,26.03
2019-04-01T22:08:07.199Z,19.47
2019-04-01T22:10:33.789Z,20.37
2019-04-01T22:13:00.022Z,24.03
2019-04-01T22:15:26.628Z,22.43
2019-04-01T22:17:52.983Z,23.87
2019-04-01T22:20:19.529Z,18.50
2019-04-01T22:22:45.810Z,23.63
2019-04-01T22:25:12.079Z,21.70
2019-04-01T22:27:38.620Z,27.23
2019-04-01T22:30:06.411Z,23.17
2019-04-01T22:32:32.757Z,23.77
2019-04-01T22:35:00.286Z,25.07
2019-04-01T22:37:27.724Z,30.33
2019-04-01T22:39:54.254Z,24.43
2019-04-01T22:42:20.770Z,19.70
2019-04-01T22:44:47.357Z,20.70
2019-04-01T22:47:13.823Z,23.73
2019-04-01T22:49:41.037Z,21.97
2019-04-01T22:52:10.403Z,22.77
2019-04-01T22:54:36.022Z,22.90
2019-04-01T22:57:02.261Z,24.97
2019-04-01T22:59:28.513Z,23.23
2019-04-01T23:01:55.040Z,26.27
2019-04-01T23:04:22.318Z,20.87
2019-04-01T23:06:48.597Z,23.40
2019-04-01T23:09:15.091Z,22.57
2019-04-01T23:11:41.543Z,23.57
2019-04-01T23:14:08.067Z,20.10
2019-04-01T23:16:34.380Z,23.90
2019-04-01T23:19:00.728Z,24.27
2019-04-01T23:21:27.319Z,26.00
2019-04-01T23:23:53.806Z,24.83
2019-04-01T23:26:20.447Z,21.53
2019-04-01T23:28:46.889Z,25.83
2019-04-01T23:31:13.492Z,23.23
2019-04-01T23:33:39.742Z,22.93
2019-04-01T23:36:06.066Z,24.27
2019-04-01T23:38:32.430Z,26.73
2019-04-01T23:40:58.949Z,26.90
2019-04-01T23:43:26.188Z,26.10
2019-04-01T23:45:53.019Z,22.13
2019-04-01T23:48:19.274Z,24.80
2019-04-01T23:50:45.562Z,23.40
2019-04-01T23:53:11.836Z,20.17
2019-04-01T23:55:38.312Z,23.80
2019-04-01T23:58:04.869Z,25.83
